Date,TemperatureHighF,TemperatureAvgF,TemperatureLowF,DewpointHighF,DewpointAvgF,DewpointLowF,HumidityHigh,HumidityAvg,HumidityLow,PressureMaxIn,PressureMinIn,WindSpeedMaxMPH,WindSpeedAvgMPH,GustSpeedMaxMPH,PrecipitationSumIn
2013-1-1,29.9,22.8,8.1,27.3,14.3,1.1,100,71,48,29.88,29.60,25,6,25,0.00
2013-1-2,19.4,9.2,1.0,8.0,0.4,-7.4,93,68,49,30.04,29.84,37,5,37,0.00
2013-1-3,20.5,8.0,-1.3,7.2,-0.2,-7.7,88,69,47,30.09,29.94,15,2,15,0.00
2013-1-4,31.6,19.3,1.2,26.3,16.0,-0.1,100,88,78,29.94,29.72,26,4,26,0.00
2013-1-5,33.0,27.1,14.0,26.9,18.4,11.7,93,71,49,30.27,29.72,25,6,25,0.00
2013-1-6,30.9,22.2,14.1,25.1,19.9,11.7,100,91,76,30.23,29.91,15,1,15,0.00
2013-1-7,25.7,20.5,13.3,25.0,17.2,11.7,100,88,70,30.41,29.94,21,5,21,0.00
2013-1-8,38.7,27.8,10.3,30.6,24.0,10.1,100,87,63,30.35,30.18,28,6,28,0.08
2013-1-9,38.9,27.9,15.4,36.6,26.4,15.4,100,95,81,30.41,29.87,18,2,18,0.13
2013-1-10,41.9,35.8,25.9,31.8,27.1,22.3,95,72,55,30.52,29.89,39,8,39,0.21
2013-1-11,35.3,28.5,21.4,32.8,23.9,18.9,100,83,61,30.53,30.25,12,1,12,0.01
2013-1-12,39.9,35.5,32.4,39.9,35.5,32.3,100,100,99,30.25,30.11,7,0,7,0.20
2013-1-13,44.2,38.9,34.4,44.2,38.9,34.4,100,100,100,30.15,29.94,22,3,22,0.01
2013-1-14,51.7,42.9,35.7,49.9,39.2,24.7,100,88,50,30.20,29.84,20,6,20,0.01
2013-1-15,36.4,32.2,27.4,27.7,25.0,21.2,95,75,62,30.32,30.20,14,3,14,0.00
2013-1-16,30.5,29.2,28.2,30.5,27.2,21.1,100,93,72,30.27,29.77,12,2,12,0.03
2013-1-17,37.0,25.6,14.1,34.9,20.6,0.1,100,83,48,30.13,29.76,20,4,20,0.14
2013-1-18,15.1,11.0,5.8,9.6,-1.4,-11.0,87,58,37,30.41,30.10,22,6,22,0.00
2013-1-19,37.5,30.6,14.3,32.6,23.4,9.0,91,75,65,30.36,29.86,28,7,28,0.12
2013-1-20,44.2,37.5,25.1,36.8,29.1,13.2,96,73,45,29.86,29.43,37,11,37,0.17
2013-1-21,24.8,19.3,12.0,17.0,7.1,-0.9,88,60,37,30.05,29.82,17,4,17,0.00
2013-1-22,17.9,12.3,5.8,15.1,5.3,-9.9,91,74,48,30.03,29.75,22,7,22,0.00
2013-1-23,5.6,1.3,-2.4,-9.2,-13.6,-16.7,62,49,39,30.09,30.02,28,6,28,0.00
2013-1-24,10.7,3.4,-4.0,-6.9,-11.2,-15.9,62,51,36,30.12,29.93,30,8,30,0.00
2013-1-25,18.6,9.8,1.2,2.2,-2.9,-8.8,74,57,37,30.20,30.06,26,5,26,0.00
2013-1-26,18.6,12.5,7.0,1.7,-1.9,-5.4,68,53,37,30.12,29.97,25,8,25,0.00
2013-1-27,22.6,13.3,5.8,3.4,0.0,-3.7,72,56,41,30.41,30.11,31,5,31,0.00
2013-1-28,26.0,17.0,6.7,20.6,7.7,-2.8,100,70,34,30.43,30.07,10,1,10,0.00
2013-1-29,30.3,24.2,16.1,30.3,23.3,16.0,100,96,86,30.21,30.07,8,1,8,0.06
2013-1-30,49.4,41.3,30.2,49.4,41.3,30.2,100,100,100,30.14,29.44,31,8,31,0.36
2013-1-31,53.7,43.5,28.2,53.7,37.1,15.6,100,80,53,29.45,28.83,80,18,80,0.12
2013-2-1,28.5,23.7,14.5,18.2,9.5,2.8,66,54,41,30.03,29.44,45,11,45,0.00
2013-2-2,24.0,18.6,9.6,16.1,8.2,0.4,76,64,50,30.20,30.03,18,2,18,0.00
2013-2-3,25.7,23.1,20.0,19.9,17.1,14.5,97,78,64,30.05,29.68,20,7,20,0.00
2013-2-4,27.2,21.3,14.5,15.2,8.8,-0.4,86,60,41,29.86,29.64,30,7,30,0.00
2013-2-5,20.8,14.9,7.6,10.3,2.4,-3.3,83,58,37,30.03,29.86,15,2,15,0.00
2013-2-6,34.0,23.3,15.4,26.4,13.9,-4.5,84,68,37,30.28,29.92,25,4,25,0.00
2013-2-7,18.6,12.7,7.2,-2.1,-5.6,-8.5,60,44,31,30.58,30.28,25,6,25,0.00
2013-2-8,15.7,12.1,7.7,15.7,8.9,-4.0,100,88,49,30.57,29.86,41,14,41,0.00
2013-2-9,17.5,12.4,8.4,14.3,10.6,8.0,100,93,74,30.09,29.65,54,23,54,0.00
2013-2-10,33.0,19.2,5.3,13.1,6.8,0.5,87,61,32,30.35,30.09,20,4,20,0.00
2013-2-11,37.9,22.8,6.5,37.9,22.0,5.1,100,97,86,30.34,29.56,10,1,10,0.46
2013-2-12,43.8,34.8,29.1,34.7,31.3,28.1,100,88,64,29.76,29.51,20,3,20,0.02
2013-2-13,41.0,32.4,25.3,30.1,27.3,24.2,100,83,57,29.81,29.73,18,2,18,0.00
2013-2-14,38.3,31.2,21.9,25.4,22.8,20.8,99,72,49,29.99,29.71,22,4,22,0.00
2013-2-15,41.2,31.5,19.8,37.4,30.3,19.8,100,96,83,30.00,29.91,28,3,28,0.00
2013-2-16,34.0,30.5,25.6,33.4,29.8,19.4,100,97,77,29.93,29.75,24,6,24,0.02
2013-2-17,25.7,20.2,16.2,20.5,13.2,5.5,100,75,57,29.76,29.15,52,16,52,0.00
2013-2-18,29.0,20.0,12.5,10.4,4.8,1.2,63,52,42,30.03,29.44,38,13,38,0.00
2013-2-19,40.9,29.1,13.2,40.9,20.3,2.0,100,72,39,30.10,29.56,25,3,25,0.57
2013-2-20,41.2,33.5,25.9,41.2,29.0,17.8,100,84,64,29.64,29.41,20,5,20,0.10
2013-2-21,29.7,24.5,20.0,24.9,16.9,10.0,88,73,56,30.13,29.64,24,7,24,0.00
2013-2-22,36.7,30.0,24.0,26.0,23.2,21.3,100,77,55,30.38,30.13,28,6,28,0.00
2013-2-23,37.2,30.6,25.4,33.9,28.8,22.4,100,93,78,30.35,30.02,22,4,22,0.01
2013-2-24,31.3,29.1,26.2,31.3,29.1,26.2,100,100,100,30.02,29.78,14,5,14,0.02
2013-2-25,36.4,28.7,23.7,31.7,27.4,23.7,100,95,74,30.24,29.90,18,3,18,0.17
2013-2-26,41.2,32.1,26.2,34.2,29.5,26.2,100,91,69,30.36,30.24,7,1,7,0.35
2013-2-27,36.3,31.5,26.5,33.9,30.9,26.5,100,98,88,30.25,29.67,39,13,39,0.18
2013-2-28,38.9,35.7,30.2,38.9,35.7,30.2,100,100,100,29.67,29.53,31,7,31,0.58
2013-3-1,33.3,31.1,30.0,32.2,30.6,29.5,100,98,90,29.66,29.52,22,8,22,0.01
2013-3-2,40.5,32.8,29.0,34.4,31.3,29.0,100,95,69,29.65,29.59,18,3,18,0.15
2013-3-3,40.6,34.6,30.5,36.1,31.9,27.6,100,90,75,29.60,29.51,14,2,14,0.14
2013-3-4,32.5,30.5,28.5,30.6,27.8,24.8,100,90,80,29.68,29.49,18,6,18,0.05
2013-3-5,42.2,35.9,29.4,35.2,33.3,29.4,100,91,74,30.12,29.67,24,10,24,0.06
2013-3-6,36.6,33.5,30.8,33.6,30.4,26.9,100,88,74,30.25,30.11,34,15,34,0.01
2013-3-7,34.9,32.3,29.0,28.3,26.3,25.4,97,79,69,30.21,30.07,38,19,38,0.00
2013-3-8,44.4,35.0,27.7,28.2,25.0,23.1,99,69,44,30.19,30.02,37,20,37,0.02
2013-3-9,45.4,34.3,25.6,30.4,25.6,22.0,100,73,41,30.38,30.18,30,9,30,0.00
2013-3-10,40.2,31.3,23.8,32.4,28.3,23.1,100,89,70,30.43,30.31,14,2,14,0.00
2013-3-11,42.2,37.4,33.1,39.7,36.2,32.1,100,95,85,30.32,30.16,22,5,22,0.00
2013-3-12,45.8,42.9,39.2,45.7,42.8,39.2,100,99,96,30.17,29.74,25,6,25,0.60
2013-3-13,48.2,41.9,29.4,46.0,38.7,27.9,100,89,67,29.74,29.65,20,4,20,0.01
2013-3-14,40.6,30.4,20.0,30.0,24.3,8.7,100,80,49,29.74,29.61,24,5,24,0.00
2013-3-15,33.4,23.9,15.3,22.4,12.4,5.4,93,62,39,29.80,29.60,26,7,26,0.00
2013-3-16,34.7,28.1,22.0,24.1,16.3,11.0,96,62,40,29.89,29.62,18,5,18,0.00
2013-3-17,31.2,23.8,17.3,16.2,8.5,1.0,84,53,36,30.31,29.89,38,7,38,0.00
2013-3-18,34.7,23.9,11.2,23.0,10.6,1.2,82,58,35,30.44,30.28,22,3,22,0.00
2013-3-19,31.2,26.8,21.7,28.8,25.5,21.7,100,95,74,30.28,29.64,39,14,39,0.00
2013-3-20,30.9,25.9,19.4,30.4,25.4,19.2,100,98,93,29.73,29.60,24,6,24,0.31
2013-3-21,35.6,27.9,20.5,27.9,24.1,19.5,100,86,61,29.76,29.60,18,3,18,0.11
2013-3-22,37.3,28.2,19.7,26.7,20.4,17.4,100,74,49,29.65,29.58,20,4,20,0.01
2013-3-23,40.2,31.1,21.3,25.2,22.1,17.1,88,70,49,29.65,29.47,34,8,34,0.00
2013-3-24,43.8,34.5,24.5,28.3,26.0,22.8,94,73,49,29.78,29.64,25,5,25,0.00
2013-3-25,41.9,34.0,25.6,33.9,29.0,24.8,98,82,67,29.77,29.58,22,8,22,0.00
2013-3-26,47.0,38.2,30.6,28.8,26.6,24.2,81,64,45,29.72,29.55,30,8,30,0.00
2013-3-27,44.6,36.5,27.2,39.0,31.7,24.7,100,84,57,29.86,29.70,26,6,26,0.18
2013-3-28,47.9,39.3,32.7,38.0,34.4,31.9,100,84,55,29.97,29.85,17,4,17,0.08
2013-3-29,54.1,42.3,30.6,39.2,33.5,29.6,100,74,46,30.01,29.93,22,4,22,0.00
2013-3-30,52.9,39.3,29.7,36.5,30.3,22.2,97,74,32,30.08,29.97,22,3,22,0.00
2013-3-31,51.9,39.3,23.8,39.3,31.1,21.4,97,75,40,30.12,29.85,20,3,20,0.00
2013-4-1,50.9,41.9,31.9,45.3,39.8,25.6,100,93,73,29.85,29.49,24,6,24,0.58
2013-4-2,38.3,31.2,23.8,26.0,17.7,12.2,86,59,37,29.83,29.68,28,6,28,0.00
2013-4-3,43.2,34.3,27.2,20.5,17.1,13.4,71,51,32,30.04,29.80,32,9,32,0.00
2013-4-4,50.0,37.7,25.7,35.8,22.5,12.2,91,57,28,30.21,29.97,28,7,28,0.00
2013-4-5,51.0,42.0,35.7,38.7,33.5,24.7,90,73,47,29.97,29.65,26,7,26,0.00
2013-4-6,38.3,31.7,26.3,26.9,12.8,6.2,72,46,30,30.35,29.81,31,9,31,0.00
2013-4-7,46.7,37.1,24.0,40.4,29.9,13.9,95,75,57,30.35,29.95,31,6,31,0.00
2013-4-8,56.2,46.2,36.0,40.9,37.9,35.0,100,76,47,30.14,29.89,29,6,29,0.00
2013-4-9,45.1,41.0,37.6,44.5,40.5,36.6,100,98,92,30.13,29.89,16,3,16,0.27
2013-4-10,54.0,43.4,38.6,49.6,42.8,38.6,100,98,84,30.00,29.89,10,1,10,0.29
2013-4-11,51.9,43.6,38.0,41.7,33.3,19.5,100,71,35,30.20,29.86,22,6,22,0.06
2013-4-12,38.0,34.1,32.1,33.4,26.2,16.7,100,75,48,30.26,29.89,24,10,24,0.34
2013-4-13,44.8,37.1,31.6,40.0,35.5,31.6,100,94,78,29.92,29.78,17,6,17,0.09
2013-4-14,51.9,41.3,33.9,45.7,39.4,33.7,100,94,61,30.18,29.89,14,2,14,0.13
2013-4-15,50.9,40.5,29.6,43.7,37.5,29.6,100,90,62,30.43,30.18,17,3,17,0.00
2013-4-16,53.8,45.5,36.6,47.0,41.8,36.6,100,88,62,30.43,29.95,32,8,32,0.00
2013-4-17,58.3,50.3,39.5,48.2,35.9,27.6,100,61,37,30.35,29.95,28,7,28,0.00
2013-4-18,50.1,41.7,30.6,41.7,33.7,27.0,91,74,47,30.48,30.18,21,4,21,0.00
2013-4-19,68.7,54.3,44.8,62.1,52.5,41.5,100,94,77,30.18,29.64,36,8,36,0.00
2013-4-20,57.6,51.0,39.7,57.6,43.2,27.7,100,78,46,30.14,29.57,39,8,39,0.29
2013-4-21,48.8,39.9,30.9,31.1,24.8,20.4,74,56,34,30.71,30.15,22,6,22,0.00
2013-4-22,48.8,38.4,29.3,38.9,28.3,20.4,95,68,37,30.82,30.66,22,7,22,0.00
2013-4-23,41.7,36.7,29.6,40.5,35.8,29.0,100,96,88,30.66,30.20,23,8,23,0.01
2013-4-24,59.7,46.6,40.0,53.6,45.3,40.0,100,96,79,30.20,29.78,22,8,22,0.09
2013-4-25,60.7,51.6,43.5,50.7,39.8,29.5,100,69,33,30.28,29.78,36,7,36,0.07
2013-4-26,55.6,45.6,33.6,41.7,34.7,29.1,99,67,48,30.44,30.28,22,5,22,0.00
2013-4-27,57.3,44.9,34.0,47.3,40.2,34.0,100,85,59,30.42,30.32,17,3,17,0.00
2013-4-28,65.2,48.6,34.2,48.2,39.8,34.2,100,76,39,30.34,30.25,10,2,10,0.00
2013-4-29,62.6,48.9,36.7,52.2,43.6,36.7,100,84,51,30.28,30.22,16,2,16,0.00
2013-4-30,66.2,50.4,37.5,52.5,41.2,30.1,100,75,41,30.37,30.25,18,2,18,0.00
2013-5-1,65.2,49.9,35.4,46.1,40.1,33.7,100,74,36,30.47,30.37,17,2,17,0.00
2013-5-2,58.9,48.2,40.9,52.5,42.8,36.5,100,83,54,30.52,30.41,31,6,31,0.00
2013-5-3,62.7,48.3,37.5,51.8,42.9,36.8,100,83,64,30.55,30.39,16,4,16,0.00
2013-5-4,60.2,46.5,37.0,50.0,41.9,37.0,100,85,52,30.40,30.33,23,4,23,0.00
2013-5-5,58.2,46.0,33.6,46.8,40.0,33.4,100,82,56,30.34,30.26,21,3,21,0.00
2013-5-6,61.5,47.8,35.9,52.8,44.7,35.9,100,90,69,30.29,30.18,18,3,18,0.00
2013-5-7,66.7,53.4,43.0,57.4,50.3,43.0,100,91,64,30.20,30.11,21,3,21,0.00
2013-5-8,72.6,59.0,47.5,66.1,56.4,47.5,100,92,72,30.24,30.12,17,3,17,0.11
2013-5-9,57.0,52.5,50.0,57.0,52.5,50.0,100,100,100,30.12,29.92,13,4,13,0.86
2013-5-10,68.7,54.9,48.0,63.7,53.7,48.0,100,96,80,29.98,29.90,12,2,12,0.03
2013-5-11,62.9,54.4,49.2,60.8,54.3,49.2,100,100,90,29.94,29.69,23,6,23,0.19
2013-5-12,64.0,55.4,45.1,60.7,54.3,44.6,100,96,80,29.73,29.53,14,2,14,0.06
2013-5-13,57.0,48.4,40.0,44.5,36.7,32.1,100,66,42,30.00,29.73,29,7,29,0.02
2013-5-14,54.9,46.9,39.7,42.9,36.5,30.6,96,69,44,30.03,29.95,22,5,22,0.00
2013-5-15,61.5,49.6,35.0,49.8,40.2,32.6,100,74,37,30.02,29.70,23,4,23,0.19
2013-5-16,76.1,61.9,45.4,61.3,49.7,42.6,100,69,32,29.78,29.55,23,5,23,0.01
2013-5-17,62.1,54.4,44.2,47.3,42.8,39.3,92,66,45,30.20,29.78,25,6,25,0.00
2013-5-18,61.0,50.0,40.2,51.7,45.6,40.2,100,86,62,30.35,30.20,23,4,23,0.00
2013-5-19,60.5,50.6,44.4,54.6,48.5,44.4,100,93,76,30.38,30.24,18,6,18,0.10
2013-5-20,70.5,56.4,48.8,64.8,55.3,48.8,100,96,79,30.24,29.92,13,2,13,0.52
2013-5-21,53.7,48.9,46.7,53.7,48.9,46.7,100,100,100,30.13,29.96,16,6,16,0.15
2013-5-22,54.6,49.6,46.7,54.0,49.5,46.7,100,100,97,30.08,29.92,18,5,18,0.61
2013-5-23,59.7,54.1,46.9,59.0,53.9,46.9,100,99,94,29.96,29.82,23,4,23,0.05
2013-5-24,61.6,56.7,48.8,61.6,56.7,48.8,100,100,100,29.83,29.65,28,7,28,1.13
2013-5-25,50.4,47.3,44.6,50.3,47.3,44.6,100,100,100,29.82,29.65,29,14,29,0.49
2013-5-26,54.0,47.7,41.3,49.1,44.9,40.2,100,91,69,29.98,29.59,25,8,25,0.24
2013-5-27,66.3,52.8,37.6,46.1,40.4,36.2,100,68,36,30.16,29.98,24,4,24,0.00
2013-5-28,69.2,55.1,38.7,55.4,44.7,38.7,100,72,40,30.24,30.16,22,2,22,0.00
2013-5-29,54.1,51.5,46.3,54.1,51.5,46.1,100,100,98,30.21,30.00,10,1,10,0.09
2013-5-30,81.4,65.9,51.6,70.1,61.2,51.6,100,87,58,30.03,29.96,18,1,18,0.01
2013-5-31,86.6,70.0,55.1,74.6,64.0,55.1,100,83,59,30.04,29.88,21,2,21,0.00
2013-6-1,85.4,71.7,59.1,74.9,65.6,59.1,100,83,63,29.91,29.80,23,3,23,0.00
2013-6-2,79.5,68.4,60.8,70.9,65.1,60.8,100,90,71,29.81,29.67,34,4,34,0.23
2013-6-3,69.7,62.2,56.0,67.6,61.2,56.0,100,97,82,29.82,29.71,20,3,20,0.02
2013-6-4,64.4,57.9,47.9,56.0,47.9,43.4,100,72,50,30.05,29.77,24,5,24,0.01
2013-6-5,68.3,57.1,46.1,54.2,47.9,41.1,95,73,42,30.17,30.05,18,3,18,0.00
2013-6-6,68.0,58.2,49.2,56.9,51.7,44.9,100,81,46,30.22,30.15,16,3,16,0.00
2013-6-7,58.3,53.9,50.4,54.5,51.5,46.9,100,92,69,30.16,29.94,18,5,18,0.45
2013-6-8,68.2,57.4,51.6,63.9,55.9,51.6,100,95,77,29.97,29.63,25,7,25,0.94
2013-6-9,71.2,61.8,55.7,65.4,59.2,55.7,100,92,73,30.15,29.97,13,1,13,0.00
2013-6-10,69.3,59.4,52.8,60.8,56.3,52.8,100,90,65,30.22,30.06,17,2,17,0.00
2013-6-11,55.0,53.3,52.5,55.0,53.3,52.5,100,100,100,30.06,29.53,32,7,32,0.91
2013-6-12,59.7,55.9,52.6,58.5,55.5,52.6,100,99,89,29.76,29.51,18,6,18,0.12
2013-6-13,70.2,58.0,50.1,60.2,54.2,47.8,100,89,48,29.79,29.74,14,2,14,0.11
2013-6-14,72.3,59.7,52.5,63.4,55.5,52.4,100,87,54,29.75,29.66,13,2,13,0.01
2013-6-15,75.2,61.5,47.8,58.6,50.3,44.0,100,71,36,29.89,29.73,24,4,24,0.00
2013-6-16,77.2,62.4,50.0,62.6,55.9,50.0,100,81,54,29.89,29.71,16,2,16,0.00
2013-6-17,78.2,64.8,53.2,67.9,61.3,53.2,100,90,64,29.86,29.71,26,2,26,0.42
2013-6-18,67.2,60.1,55.1,58.8,56.5,52.8,100,89,64,29.98,29.84,14,1,14,0.00
2013-6-19,72.1,61.3,52.0,57.7,51.9,45.8,100,74,43,30.13,29.92,21,4,21,0.00
2013-6-20,75.6,61.9,47.9,59.0,53.6,47.9,100,77,44,30.25,30.13,13,2,13,0.00
2013-6-21,77.4,64.0,53.8,64.2,58.3,53.8,100,84,51,30.23,30.17,13,1,13,0.00
2013-6-22,80.2,65.9,57.1,69.3,62.9,57.1,100,91,61,30.20,30.09,14,1,14,0.02
2013-6-23,73.0,66.2,61.5,68.8,64.7,61.5,100,95,79,30.14,29.95,13,1,13,0.30
2013-6-24,88.7,75.1,62.9,76.8,69.5,62.9,100,84,57,29.95,29.80,16,2,16,0.01
2013-6-25,87.0,75.4,66.7,75.9,70.0,66.7,100,85,61,29.85,29.69,14,1,14,0.15
2013-6-26,76.7,66.1,56.8,72.3,65.0,56.7,100,96,82,29.89,29.68,21,2,21,0.71
2013-6-27,65.7,57.7,53.7,62.6,57.2,53.7,100,98,87,29.89,29.83,13,5,13,0.33
2013-6-28,65.5,59.6,54.6,65.5,59.6,54.6,100,100,100,29.83,29.54,23,6,23,0.40
2013-6-29,73.7,64.8,61.3,71.7,64.5,61.3,100,99,90,29.69,29.55,23,4,23,0.01
2013-6-30,80.0,68.0,60.5,74.2,66.3,60.5,100,95,79,29.92,29.69,13,2,13,0.00
2013-7-1,76.7,68.1,62.3,73.9,67.5,62.3,100,98,87,30.10,29.92,8,0,8,0.28
2013-7-2,65.2,60.9,57.7,65.2,60.9,57.7,100,100,100,30.22,30.08,14,2,14,0.30
2013-7-3,76.9,63.9,57.0,73.1,62.9,57.0,100,97,82,30.21,30.09,10,0,10,0.03
2013-7-4,88.7,75.2,61.9,79.2,70.8,61.9,100,87,67,30.15,30.03,9,1,9,0.00
2013-7-5,87.9,77.6,68.0,77.6,72.7,68.0,100,86,61,30.10,29.98,13,2,13,0.01
2013-7-6,88.1,78.4,69.2,78.0,72.7,64.9,100,84,65,30.01,29.90,13,1,13,0.00
2013-7-7,87.2,77.3,65.7,76.1,69.4,63.3,95,78,54,29.96,29.88,10,1,10,0.00
2013-7-8,76.0,69.4,64.0,70.7,66.5,61.4,100,91,71,30.07,29.89,16,2,16,0.57
2013-7-9,68.2,63.4,59.9,67.4,63.1,59.9,100,99,94,30.12,30.06,9,2,9,0.06
2013-7-10,67.5,62.6,58.8,67.2,62.3,58.8,100,99,91,30.09,29.77,9,2,9,0.03
2013-7-11,80.8,71.1,65.3,73.8,69.5,65.3,100,95,70,29.95,29.74,9,1,9,0.00
2013-7-12,79.5,68.7,59.4,69.2,61.4,57.9,100,78,56,30.21,29.95,16,5,16,0.00
2013-7-13,81.0,68.3,57.4,70.8,63.1,57.3,100,85,58,30.31,30.21,9,1,9,0.00
2013-7-14,86.6,73.8,62.6,76.1,68.2,62.6,100,84,57,30.28,30.17,9,1,9,0.00
2013-7-15,90.0,76.8,65.5,76.8,69.6,63.8,100,81,44,30.17,30.05,14,2,14,0.00
2013-7-16,89.6,78.2,68.7,76.5,70.5,67.1,100,79,56,30.15,30.07,14,2,14,0.00
2013-7-17,82.4,74.1,67.0,75.2,69.9,66.9,100,87,72,30.17,29.92,23,2,23,0.42
2013-7-18,85.6,74.6,68.2,77.1,70.2,65.0,100,87,61,30.00,29.91,16,2,16,0.02
2013-7-19,87.2,76.6,68.7,79.9,73.1,68.7,100,89,74,29.94,29.63,8,0,8,0.00
2013-7-20,85.8,77.7,70.2,77.1,71.9,63.5,99,83,68,29.76,29.59,10,1,10,0.00
2013-7-21,76.3,68.9,62.1,65.2,62.1,58.3,100,80,58,30.02,29.76,12,0,12,0.00
2013-7-22,73.8,66.2,59.9,67.5,62.4,58.8,100,88,65,30.04,29.92,0,0,0,0.00
2013-7-23,67.7,63.9,60.5,67.5,63.9,60.5,100,100,100,29.92,29.53,13,1,13,1.11
2013-7-24,81.6,68.5,58.3,75.4,64.7,52.8,100,88,69,29.97,29.56,21,2,21,0.00
2013-7-25,73.0,61.9,55.1,63.0,56.3,49.7,100,83,65,30.11,29.97,21,5,21,0.07
2013-7-26,67.3,63.5,60.5,65.6,62.9,60.5,100,98,92,30.08,29.88,25,9,25,0.17
2013-7-27,80.2,70.0,59.7,71.6,65.1,59.7,100,86,65,30.03,29.91,17,2,17,0.00
2013-7-28,70.9,64.6,61.1,67.5,64.2,61.1,100,99,87,30.05,30.00,14,2,14,0.07
2013-7-29,75.1,65.9,60.8,70.6,64.8,60.8,100,97,82,30.06,30.00,10,1,10,0.23
2013-7-30,77.2,66.8,60.2,68.9,63.3,59.4,100,90,64,30.06,30.00,14,1,14,0.01
2013-7-31,80.8,66.5,55.0,68.4,60.8,55.0,100,84,58,30.11,30.03,14,2,14,0.00
2013-8-1,78.3,67.9,58.0,71.5,65.2,58.0,100,92,73,30.05,29.88,13,2,13,0.00
2013-8-2,76.7,66.3,61.8,70.9,65.3,61.8,100,97,80,29.88,29.75,14,1,14,0.43
2013-8-3,76.3,65.0,58.2,68.3,62.5,58.2,100,92,71,29.82,29.71,14,1,14,0.02
2013-8-4,76.9,63.8,54.6,66.0,59.9,54.4,100,89,56,29.83,29.72,16,2,16,0.15
2013-8-5,71.2,60.4,50.9,57.0,53.0,47.3,100,79,54,30.03,29.82,18,3,18,0.00
2013-8-6,76.5,62.2,48.2,63.5,54.3,47.2,100,77,53,30.15,30.02,17,0,17,0.00
2013-8-7,75.8,64.0,51.9,67.3,60.6,51.9,100,90,60,30.19,30.12,9,1,9,0.00
2013-8-8,73.1,65.2,58.9,70.9,64.5,58.8,100,98,91,30.12,30.00,10,1,10,0.26
2013-8-9,70.9,66.6,65.3,70.9,66.6,65.3,100,100,100,30.02,29.71,21,4,21,0.72
2013-8-10,79.1,69.2,55.7,70.9,61.1,52.1,100,78,45,29.98,29.72,18,2,18,0.01
2013-8-11,74.9,63.4,51.7,62.8,56.4,51.5,100,80,52,30.04,29.96,13,2,13,0.00
2013-8-12,79.3,66.1,55.7,67.0,60.8,55.7,100,85,58,29.99,29.89,16,1,16,0.00
2013-8-13,74.7,65.1,57.6,69.9,63.3,57.6,100,94,80,29.90,29.69,13,1,13,0.00
2013-8-14,75.4,65.7,55.0,70.4,60.4,50.5,100,85,51,29.88,29.60,17,2,17,0.00
2013-8-15,74.0,62.3,50.9,62.2,55.9,50.6,100,82,54,30.07,29.88,13,1,13,0.00
2013-8-16,77.2,63.1,52.8,63.5,57.9,52.8,100,85,53,30.17,30.06,16,1,16,0.00
2013-8-17,78.5,64.4,54.9,65.1,58.5,54.7,100,83,52,30.26,30.17,14,2,14,0.00
2013-8-18,76.5,64.0,52.8,64.3,59.5,52.8,100,87,57,30.27,30.04,9,1,9,0.00
2013-8-19,79.8,68.7,56.8,69.3,63.4,56.8,100,85,62,30.04,29.88,18,1,18,0.00
2013-8-20,82.9,70.4,60.0,71.7,64.5,60.0,100,83,57,30.06,29.94,9,1,9,0.00
2013-8-21,87.0,69.4,60.8,71.9,65.3,60.8,100,89,54,30.12,29.98,13,1,14,0.00
2013-8-22,82.7,71.2,61.5,72.5,67.0,61.5,100,88,68,29.98,29.75,16,2,16,0.00
2013-8-23,75.4,68.1,56.5,66.8,58.7,52.0,100,74,50,30.13,29.75,25,5,25,0.00
2013-8-24,75.1,61.6,50.0,57.5,52.4,48.1,100,75,41,30.30,30.13,17,3,17,0.00
2013-8-25,77.2,63.3,52.0,63.8,57.2,51.4,100,83,49,30.35,30.14,10,2,10,0.00
2013-8-26,75.8,65.5,57.3,69.2,63.6,57.3,100,94,78,30.14,29.85,12,1,12,0.10
2013-8-27,82.5,69.9,61.1,71.3,65.9,61.1,100,88,66,29.89,29.83,9,1,9,0.00
2013-8-28,80.6,68.3,61.3,71.1,65.3,61.3,100,91,67,30.00,29.87,12,1,12,0.02
2013-8-29,66.7,62.9,55.3,64.4,61.2,55.3,100,94,83,30.10,29.98,17,5,17,0.01
2013-8-30,75.6,64.7,54.3,69.2,62.1,54.3,100,92,77,30.02,29.76,18,2,18,0.00
2013-8-31,82.4,70.4,64.4,72.0,68.3,64.2,100,94,69,29.82,29.75,16,1,16,0.01
2013-9-1,81.6,71.9,65.8,74.1,69.4,65.8,100,92,74,29.90,29.75,8,1,8,0.00
2013-9-2,67.5,64.8,60.4,67.5,64.8,60.4,100,100,100,29.90,29.73,14,2,17,5.21
2013-9-3,76.7,68.9,63.6,72.0,67.7,63.6,100,96,82,29.77,29.69,9,1,9,0.02
2013-9-4,76.9,66.5,56.7,67.2,61.6,56.7,100,85,63,29.88,29.73,14,1,14,0.00
2013-9-5,64.4,58.0,47.8,61.1,54.0,45.5,100,87,60,30.13,29.84,16,3,16,0.01
2013-9-6,65.0,53.8,41.0,55.3,47.4,39.5,100,82,44,30.22,30.03,14,2,14,0.00
2013-9-7,69.9,60.3,49.8,62.8,56.4,49.7,100,88,60,30.03,29.78,16,1,16,0.00
2013-9-8,65.0,57.5,44.8,59.7,51.5,41.8,100,82,53,30.06,29.70,26,4,26,0.19
2013-9-9,64.2,53.3,41.0,55.4,48.7,40.7,100,86,59,30.20,30.06,18,3,18,0.00
2013-9-10,64.4,59.7,53.8,63.6,58.8,53.3,100,97,90,30.12,30.03,16,2,16,0.00
2013-9-11,80.2,69.2,60.8,74.9,67.4,60.8,100,94,79,30.04,29.88,28,1,28,0.99
2013-9-12,73.3,66.2,62.6,71.2,66.0,62.6,100,99,92,29.97,29.65,22,2,22,1.51
2013-9-13,70.2,63.1,55.9,69.4,63.0,55.9,100,100,91,29.70,29.57,16,2,16,0.84
2013-9-14,67.5,59.3,51.3,62.5,56.7,50.8,100,91,74,30.02,29.69,14,2,14,0.01
2013-9-15,64.4,55.6,46.3,57.0,52.5,46.1,100,90,64,30.13,29.99,13,2,13,0.00
2013-9-16,63.7,54.5,43.0,58.8,52.3,38.4,100,93,73,30.25,29.96,17,3,17,0.09
2013-9-17,62.6,49.5,35.9,50.6,43.3,35.9,100,81,52,30.40,30.25,18,4,18,0.00
2013-9-18,67.5,53.6,41.6,57.0,48.7,41.6,100,86,53,30.30,30.09,16,1,16,0.00
2013-9-19,70.9,56.3,45.2,59.4,51.6,45.2,100,86,55,30.12,30.02,9,1,9,0.01
2013-9-20,72.8,58.5,47.5,61.0,54.3,47.5,100,88,58,30.11,30.03,9,1,9,0.00
2013-9-21,64.8,59.8,55.1,63.0,59.3,55.1,100,98,93,30.03,29.76,14,2,14,0.01
2013-9-22,67.3,61.7,48.6,65.5,60.4,47.8,100,95,80,29.76,29.58,18,3,18,0.19
2013-9-23,55.7,48.9,40.9,48.0,43.6,40.9,100,83,65,29.94,29.75,26,5,26,0.00
2013-9-24,53.8,48.7,41.9,46.7,44.1,41.4,100,84,71,29.93,29.83,14,3,14,0.00
2013-9-25,60.7,52.2,42.3,52.1,47.1,42.3,100,84,65,29.97,29.86,21,4,21,0.00
2013-9-26,62.3,53.5,42.6,53.1,49.1,42.6,100,86,69,30.13,29.97,23,6,23,0.00
2013-9-27,66.7,58.0,50.1,57.4,53.4,50.1,100,86,67,30.24,30.12,14,3,14,0.00
2013-9-28,71.1,56.0,48.2,60.8,52.8,48.0,100,90,62,30.34,30.24,13,2,13,0.00
2013-9-29,63.6,52.0,45.1,57.8,50.5,45.1,100,95,71,30.27,30.13,8,0,8,0.01
2013-9-30,63.4,50.7,42.9,56.4,49.3,42.9,100,96,74,30.15,29.97,7,1,7,0.01
2013-10-1,71.4,56.2,44.2,58.2,51.9,44.2,100,87,54,29.97,29.82,17,3,17,0.01
2013-10-2,74.4,60.5,50.0,65.8,57.1,50.0,100,90,65,29.89,29.74,10,1,10,0.00
2013-10-3,72.1,59.2,50.1,57.4,52.1,48.4,100,80,51,30.05,29.89,10,1,10,0.00
2013-10-4,68.3,56.2,45.8,59.6,52.2,45.8,100,88,61,30.09,30.02,13,0,13,0.00
2013-10-5,61.8,55.0,47.5,52.4,49.0,46.1,100,81,59,30.15,30.07,8,1,8,0.00
2013-10-6,54.6,49.9,46.4,50.0,45.5,39.6,100,86,63,30.29,30.14,21,4,21,0.08
2013-10-7,65.5,58.2,48.9,65.3,58.2,48.9,100,100,100,30.21,29.79,29,5,29,0.42
2013-10-8,60.7,52.6,40.3,60.7,47.0,40.3,100,83,57,30.40,29.82,24,3,24,0.01
2013-10-9,57.9,46.3,38.0,47.1,42.4,38.0,100,88,57,30.50,30.37,9,1,9,0.01
2013-10-10,60.4,47.4,38.2,52.1,45.0,38.2,100,92,62,30.38,30.19,7,0,7,0.00
2013-10-11,65.7,53.2,45.2,57.8,51.0,45.1,100,93,67,30.19,30.12,9,1,9,0.00
2013-10-12,58.5,52.6,50.0,54.0,51.0,47.9,100,94,82,30.43,30.17,16,4,16,0.00
2013-10-13,58.2,50.6,40.3,51.3,47.9,40.3,100,91,65,30.47,30.40,10,1,10,0.00
2013-10-14,57.0,48.2,38.0,52.2,45.6,38.0,100,92,66,30.40,30.25,14,1,14,0.00
2013-10-15,63.7,55.8,51.7,56.8,53.4,51.7,100,92,76,30.29,30.21,10,1,10,0.00
2013-10-16,58.0,54.9,52.5,56.8,54.3,52.5,100,98,86,30.22,29.90,13,2,13,0.00
2013-10-17,65.3,56.3,50.9,60.6,55.3,50.9,100,96,82,29.90,29.71,14,1,14,0.00
2013-10-18,64.8,56.3,48.3,58.0,52.9,46.8,100,90,58,29.82,29.57,22,3,22,0.25
2013-10-19,59.3,51.2,41.6,51.4,46.9,41.6,100,86,64,29.94,29.75,14,1,14,0.00
2013-10-20,59.9,52.7,42.6,53.2,45.0,37.1,100,77,46,29.95,29.66,22,3,22,0.01
2013-10-21,57.9,47.8,37.9,51.2,43.7,37.8,100,87,58,30.09,29.95,13,2,13,0.00
2013-10-22,60.2,53.1,43.0,55.7,51.5,43.0,100,95,79,29.97,29.69,22,4,22,0.04
2013-10-23,52.2,43.4,34.3,43.9,40.2,34.3,100,90,65,29.77,29.59,10,1,10,0.01
2013-10-24,49.8,42.8,34.4,40.4,34.8,30.6,98,75,52,29.82,29.59,23,4,23,0.00
2013-10-25,47.6,39.2,31.9,37.5,32.8,28.1,100,79,56,30.10,29.82,18,2,18,0.00
2013-10-26,50.3,40.7,27.9,43.4,35.1,27.9,100,82,61,30.11,29.87,26,4,26,0.01
2013-10-27,54.3,44.3,34.4,44.1,39.0,30.8,100,83,58,30.01,29.77,18,3,18,0.08
2013-10-28,54.0,40.6,31.8,44.1,33.8,25.9,100,78,58,30.35,30.01,22,5,22,0.00
2013-10-29,43.8,33.4,25.4,31.1,26.9,21.9,100,79,44,30.46,30.35,13,2,13,0.00
2013-10-30,45.8,34.4,27.2,36.8,30.3,27.2,100,87,53,30.35,30.17,10,1,10,0.00
2013-10-31,56.0,43.2,27.8,56.0,43.1,27.8,100,100,95,30.25,29.78,29,3,29,0.27
2013-11-1,62.6,56.8,51.3,60.9,56.2,51.3,100,98,91,29.78,29.35,37,11,37,0.27
2013-11-2,59.9,50.3,39.7,51.3,47.0,39.7,100,89,64,29.75,29.56,18,3,18,0.03
2013-11-3,44.1,36.6,26.8,43.3,28.5,21.1,98,74,50,30.42,29.75,24,8,24,0.02
2013-11-4,38.3,30.0,23.4,25.6,21.8,19.6,97,73,48,30.72,30.42,25,4,25,0.00
2013-11-5,44.9,33.9,25.0,36.8,30.7,22.3,100,89,68,30.72,30.50,18,1,18,0.00
2013-11-6,51.6,44.6,33.9,50.3,43.4,33.9,100,96,83,30.50,29.99,23,5,23,0.00
2013-11-7,56.5,49.4,34.0,56.5,48.3,32.3,100,96,74,29.99,29.62,26,6,26,0.06
2013-11-8,44.6,37.1,29.6,32.4,27.9,25.0,94,70,53,29.99,29.77,18,4,18,0.00
2013-11-9,43.2,36.2,29.3,30.8,25.6,23.5,94,67,47,30.12,29.99,21,4,21,0.00
2013-11-10,42.5,37.8,33.0,42.3,37.2,29.8,100,98,87,30.08,29.71,8,1,8,0.04
2013-11-11,43.2,38.4,33.3,36.2,33.5,31.0,100,83,66,30.02,29.74,23,3,23,0.00
2013-11-12,43.6,32.5,25.6,35.5,23.0,16.7,85,68,58,30.11,29.82,22,6,22,0.00
2013-11-13,31.8,26.2,22.0,20.1,16.1,13.7,82,66,51,30.23,30.08,21,3,21,0.00
2013-11-14,43.9,33.8,25.0,30.7,26.5,20.3,100,76,54,30.08,29.98,14,2,14,0.00
2013-11-15,50.1,35.9,25.1,38.6,31.3,25.1,100,86,43,30.17,30.07,14,1,14,0.00
2013-11-16,47.5,37.3,30.6,44.7,35.5,30.6,100,94,70,30.34,30.16,9,1,9,0.00
2013-11-17,51.0,44.5,34.9,51.0,44.0,34.9,100,98,88,30.35,29.92,23,4,23,0.09
2013-11-18,58.9,51.5,41.9,57.1,49.5,38.7,100,93,66,29.92,29.48,32,5,32,0.20
2013-11-19,42.6,35.1,29.7,39.9,24.9,18.8,91,67,54,30.20,29.56,28,8,28,0.00
2013-11-20,36.9,29.4,22.3,20.0,17.1,13.3,86,61,39,30.63,30.20,26,4,26,0.00
2013-11-21,40.9,29.5,20.2,30.3,23.6,17.4,97,80,41,30.63,30.33,10,1,10,0.00
2013-11-22,37.5,33.8,30.5,36.5,31.2,24.0,100,91,71,30.33,29.77,8,1,8,0.04
2013-11-23,38.7,33.5,24.7,38.0,26.0,17.5,100,76,43,29.80,29.66,26,5,26,0.00
2013-11-24,24.5,20.5,17.0,24.5,9.4,3.0,100,63,49,30.00,29.66,36,11,36,0.00
2013-11-25,30.8,20.8,15.1,20.4,6.9,0.7,76,55,37,30.30,29.99,29,6,29,0.00
2013-11-26,33.1,30.3,26.5,31.0,27.3,18.9,100,90,61,30.30,30.14,17,3,17,0.10
2013-11-27,57.7,47.0,30.5,57.7,47.0,30.5,100,100,100,30.14,29.13,44,10,44,2.12
2013-11-28,37.0,28.2,17.9,37.0,19.9,9.3,100,72,46,30.38,29.27,29,5,29,0.00
2013-11-29,24.4,18.7,13.5,13.4,10.3,7.1,90,71,48,30.73,30.38,17,3,17,0.00
2013-11-30,26.2,19.9,11.0,23.6,14.6,9.2,95,81,50,30.81,30.41,13,2,13,0.00
2013-12-1,34.2,31.3,25.7,33.0,30.4,24.0,100,97,83,30.41,30.06,14,3,14,0.57
2013-12-2,38.2,34.3,32.8,38.2,34.3,32.8,100,100,100,30.06,29.91,17,6,17,0.58
2013-12-3,39.9,34.0,27.9,39.3,33.9,27.9,100,100,97,29.92,29.84,18,4,18,0.00
2013-12-4,39.2,30.6,24.7,31.5,28.2,24.7,100,92,70,30.22,29.87,13,2,13,0.01
2013-12-5,45.8,34.6,24.2,45.8,34.6,24.2,100,100,100,30.26,29.89,9,1,9,0.00
2013-12-6,43.9,40.2,34.0,43.9,40.0,30.8,100,99,88,30.11,29.83,10,1,10,0.05
2013-12-7,36.0,30.7,20.9,32.4,22.6,11.2,100,73,53,30.42,30.06,21,4,21,0.01
2013-12-8,27.1,23.7,19.4,17.4,12.3,9.9,78,62,49,30.58,30.41,18,4,18,0.00
2013-12-9,33.3,26.2,21.9,33.3,22.8,12.9,100,88,65,30.54,29.83,26,7,26,0.18
2013-12-10,31.1,25.3,18.1,31.1,25.3,18.1,100,100,100,29.90,29.72,9,0,9,0.00
2013-12-11,26.2,20.3,14.3,23.5,18.9,14.3,100,95,78,30.12,29.90,20,3,20,0.00
2013-12-12,18.6,12.5,6.5,17.4,6.3,0.5,97,77,53,30.24,30.00,22,4,22,0.00
2013-12-13,22.8,15.0,3.8,14.3,6.8,-5.7,84,70,57,30.39,29.89,23,7,23,0.00
2013-12-14,10.8,6.3,-0.3,9.4,-3.1,-8.3,97,66,49,30.63,30.38,21,6,21,0.00
2013-12-15,14.8,11.4,8.1,14.6,11.2,7.7,100,99,97,30.38,29.38,37,12,37,0.00
2013-12-16,20.9,12.8,2.1,18.1,9.7,-3.4,100,88,69,30.20,29.65,33,4,33,0.00
2013-12-17,11.2,4.4,-7.7,9.7,0.5,-10.1,99,84,70,30.31,30.02,13,4,13,0.00
2013-12-18,24.5,14.8,7.4,22.2,14.3,7.2,100,98,90,30.02,29.83,17,5,17,0.00
2013-12-19,30.9,22.1,9.1,28.2,21.4,9.1,100,97,88,30.08,29.91,16,2,16,0.03
2013-12-20,38.2,29.4,18.1,38.2,29.4,18.1,100,100,100,30.12,29.89,6,0,6,0.26
2013-12-21,33.1,31.0,27.8,33.1,31.0,27.8,100,100,100,29.95,29.82,9,2,9,0.22
2013-12-22,31.6,27.8,24.5,31.6,27.8,24.5,100,100,100,30.09,29.87,18,8,18,0.40
2013-12-23,30.9,28.3,24.8,30.9,28.3,24.8,100,100,100,30.12,29.96,12,3,12,0.01
2013-12-24,30.8,23.1,11.0,30.8,22.7,9.8,100,98,93,30.18,30.06,10,1,10,0.00
2013-12-25,15.3,9.5,4.5,13.4,7.9,1.6,100,93,86,30.56,30.17,14,2,14,0.00
2013-12-26,25.7,17.8,12.0,25.6,17.7,12.0,100,100,97,30.52,30.07,9,1,9,0.00
2013-12-27,29.9,19.3,8.1,29.5,19.2,7.7,100,100,98,30.20,30.12,10,1,10,0.00
2013-12-28,32.1,24.0,12.7,31.3,23.8,12.7,100,99,95,30.17,29.93,8,0,8,0.00
2013-12-29,33.3,25.5,16.7,33.3,25.5,16.7,100,100,100,30.02,29.50,22,2,22,0.59
2013-12-30,29.7,18.2,2.3,29.6,16.8,-0.2,100,94,80,30.18,29.50,21,4,21,0.00
2013-12-31,8.4,3.1,-1.1,4.1,0.3,-3.1,99,88,73,30.18,30.05,10,2,10,0.00
2014-1-1,20.6,6.7,-5.1,12.4,3.2,-6.4,100,86,66,30.41,30.11,18,3,18,0.00
2014-1-2,6.7,-3.1,-8.6,0.2,-6.8,-11.2,90,84,72,30.45,29.99,29,13,29,0.00